Time;durP1;ratioP1;P1;durP2;ratioP2;P2;SDS_P1;SDS_P2;PMS_P1;PMS_P2;Temp;Humidity;BMP_temperature;BMP_pressure;BME280_temperature;BME280_humidity;BME280_pressure;Samples;Min_cycle;Max_cycle;Signal;HPM_P1;HPM_P2
2021/12/28 00:01:21;;;;;;;11.73;5.40;;;6.60;91.80;;;;;;5052941;28;20395;-70
2021/12/28 00:03:47;;;;;;;11.57;5.40;;;6.60;91.80;;;;;;5053302;28;20029;-71
2021/12/28 00:06:15;;;;;;;10.48;6.25;;;6.60;91.80;;;;;;5052705;28;20107;-70
2021/12/28 00:08:41;;;;;;;13.38;6.97;;;6.60;91.80;;;;;;5040008;28;20392;-70
2021/12/28 00:11:07;;;;;;;9.50;5.93;;;6.60;91.80;;;;;;5044224;28;20535;-70
2021/12/28 00:13:33;;;;;;;11.20;5.82;;;6.70;91.80;;;;;;5048883;28;20073;-70
2021/12/28 00:18:32;;;;;;;12.75;6.35;;;6.70;91.80;;;;;;5039763;28;20079;-70
2021/12/28 00:21:01;;;;;;;13.80;6.90;;;6.70;91.80;;;;;;5052547;28;20040;-70
2021/12/28 00:23:32;;;;;;;8.45;5.32;;;6.70;91.80;;;;;;5039925;28;20032;-70
2021/12/28 00:26:00;;;;;;;12.43;6.57;;;6.70;91.80;;;;;;5053295;28;20045;-70
2021/12/28 00:28:26;;;;;;;14.48;7.53;;;6.70;91.90;;;;;;5038906;28;20025;-70
2021/12/28 00:30:53;;;;;;;16.40;7.82;;;6.70;91.90;;;;;;5051332;28;20028;-71
2021/12/28 00:33:20;;;;;;;12.00;6.05;;;6.70;92.00;;;;;;5052503;28;20484;-70
2021/12/28 00:35:46;;;;;;;14.07;7.80;;;6.70;92.00;;;;;;5050832;28;20040;-70
2021/12/28 00:38:18;;;;;;;10.93;6.25;;;6.70;92.00;;;;;;5033134;28;20029;-71
2021/12/28 00:40:45;;;;;;;14.60;8.27;;;6.70;92.10;;;;;;5048357;28;20029;-70
2021/12/28 00:43:10;;;;;;;11.77;6.13;;;6.70;92.20;;;;;;5052202;28;20071;-70
2021/12/28 00:45:36;;;;;;;14.18;6.93;;;6.80;92.20;;;;;;5039285;28;20044;-70
2021/12/28 00:48:02;;;;;;;12.38;6.38;;;6.70;92.30;;;;;;5042962;28;20033;-70
2021/12/28 00:50:28;;;;;;;16.08;7.30;;;6.70;92.30;;;;;;5048583;28;20029;-70
2021/12/28 00:52:56;;;;;;;13.25;7.05;;;6.80;92.50;;;;;;5041464;28;20033;-70
2021/12/28 00:55:23;;;;;;;12.13;7.03;;;6.80;92.50;;;;;;5043976;28;20088;-70
2021/12/28 00:57:50;;;;;;;12.15;6.82;;;6.80;92.60;;;;;;5033792;28;20033;-70
2021/12/28 01:00:21;;;;;;;11.10;6.22;;;6.80;92.60;;;;;;5033320;28;20025;-70
2021/12/28 01:02:47;;;;;;;15.93;7.75;;;6.80;92.60;;;;;;5039108;28;20558;-70
2021/12/28 01:05:14;;;;;;;8.48;5.05;;;6.80;92.70;;;;;;5052625;28;20045;-71
2021/12/28 01:07:40;;;;;;;13.68;7.88;;;6.80;92.70;;;;;;5052672;28;20685;-70
2021/12/28 01:10:09;;;;;;;14.70;7.80;;;6.80;92.80;;;;;;5037754;28;20029;-70
2021/12/28 01:12:35;;;;;;;9.88;5.55;;;6.80;92.80;;;;;;5039504;28;20047;-70
2021/12/28 01:15:06;;;;;;;13.55;7.25;;;6.80;92.80;;;;;;5038955;28;20037;-71
2021/12/28 01:17:33;;;;;;;13.05;7.82;;;6.80;92.90;;;;;;5043452;28;20037;-70
2021/12/28 01:19:59;;;;;;;15.57;8.07;;;6.80;92.90;;;;;;5034395;28;20512;-70
2021/12/28 01:22:28;;;;;;;11.05;6.20;;;6.80;92.90;;;;;;5043451;28;20060;-70
2021/12/28 01:24:53;;;;;;;12.43;6.60;;;6.80;93.20;;;;;;5034501;28;20029;-70
2021/12/28 01:27:19;;;;;;;16.35;6.82;;;6.80;92.90;;;;;;5052308;28;20032;-70
2021/12/28 01:29:44;;;;;;;13.55;7.85;;;6.80;93.00;;;;;;5048463;28;20116;-70
2021/12/28 01:32:10;;;;;;;14.90;7.38;;;6.90;93.00;;;;;;5041287;28;20068;-70
2021/12/28 01:34:36;;;;;;;12.82;6.43;;;6.80;93.00;;;;;;5051955;28;20444;-71
2021/12/28 01:37:01;;;;;;;11.02;7.38;;;6.90;93.10;;;;;;5052352;28;20025;-70
2021/12/28 01:39:27;;;;;;;12.25;6.97;;;6.90;93.10;;;;;;5051327;28;20029;-70
2021/12/28 01:41:53;;;;;;;11.05;6.22;;;6.90;93.20;;;;;;5044769;28;20135;-71
2021/12/28 01:44:18;;;;;;;12.70;7.80;;;6.90;93.10;;;;;;5044343;28;20036;-70
2021/12/28 01:46:44;;;;;;;16.23;8.02;;;6.90;93.20;;;;;;5049464;28;20040;-70
2021/12/28 01:49:12;;;;;;;12.77;6.80;;;6.90;93.20;;;;;;5044880;28;20026;-70
2021/12/28 01:51:38;;;;;;;10.98;6.15;;;6.90;93.20;;;;;;5052433;28;20025;-70
2021/12/28 01:54:06;;;;;;;15.50;7.70;;;6.90;93.20;;;;;;5055487;28;20028;-70
2021/12/28 01:56:38;;;;;;;14.82;7.82;;;6.90;93.30;;;;;;5047046;28;20064;-70
2021/12/28 01:59:05;;;;;;;14.13;8.10;;;6.90;93.30;;;;;;5042685;28;20121;-70
2021/12/28 02:01:31;;;;;;;13.18;7.68;;;7.00;93.30;;;;;;5051721;28;20056;-71
2021/12/28 02:03:57;;;;;;;13.20;7.72;;;7.00;93.30;;;;;;5055120;28;20495;-71
2021/12/28 02:06:25;;;;;;;13.25;8.13;;;7.00;93.30;;;;;;5035411;28;20149;-70
2021/12/28 02:08:52;;;;;;;14.05;7.32;;;7.00;93.30;;;;;;5049255;28;20083;-71
2021/12/28 02:11:18;;;;;;;15.52;8.70;;;7.00;93.30;;;;;;5035906;28;20120;-70
2021/12/28 02:13:44;;;;;;;16.00;8.23;;;7.10;93.40;;;;;;5045475;28;20112;-71
2021/12/28 02:16:09;;;;;;;14.68;8.45;;;7.10;93.50;;;;;;5054678;28;20126;-70
2021/12/28 02:18:36;;;;;;;14.18;8.50;;;7.10;93.50;;;;;;5055354;28;20116;-70
2021/12/28 02:21:07;;;;;;;17.23;8.52;;;7.10;93.50;;;;;;5054958;28;20068;-70
2021/12/28 02:23:36;;;;;;;16.08;8.43;;;7.10;93.50;;;;;;5049110;28;20068;-70
2021/12/28 02:26:03;;;;;;;13.60;7.18;;;7.10;93.50;;;;;;5035590;28;20045;-70
2021/12/28 02:28:29;;;;;;;16.50;8.05;;;7.10;93.50;;;;;;5053716;28;20469;-70
2021/12/28 02:30:57;;;;;;;16.15;8.75;;;7.10;93.50;;;;;;5042084;28;20087;-70
2021/12/28 02:33:27;;;;;;;22.58;9.23;;;7.10;93.60;;;;;;5047166;28;20029;-71
2021/12/28 02:35:58;;;;;;;18.08;10.05;;;7.20;93.60;;;;;;5036738;28;20120;-70
2021/12/28 02:38:24;;;;;;;22.23;9.82;;;7.20;93.70;;;;;;5046028;28;20037;-70
2021/12/28 02:40:50;;;;;;;21.83;10.50;;;7.20;93.70;;;;;;5051919;28;20037;-70
2021/12/28 02:43:17;;;;;;;38.35;9.50;;;7.20;93.70;;;;;;5054630;28;20102;-70
2021/12/28 02:45:54;;;;;;;20.27;10.43;;;7.10;93.80;;;;;;5050410;28;20096;-70
2021/12/28 02:48:22;;;;;;;26.05;11.07;;;7.20;93.80;;;;;;5034344;28;20091;-70
2021/12/28 02:50:51;;;;;;;17.23;9.82;;;7.20;93.80;;;;;;5053341;28;20078;-70
2021/12/28 02:53:19;;;;;;;24.83;10.70;;;7.20;93.80;;;;;;5045582;28;20473;-70
2021/12/28 02:55:46;;;;;;;34.85;10.32;;;7.30;93.90;;;;;;5036085;28;20041;-70
2021/12/28 02:58:33;;;;;;;24.77;10.60;;;7.20;93.90;;;;;;5046510;28;20435;-70
2021/12/28 03:01:06;;;;;;;37.45;10.90;;;7.30;94.00;;;;;;5045082;28;20037;-70
2021/12/28 03:03:32;;;;;;;21.77;9.90;;;7.30;94.00;;;;;;5036332;28;20033;-70
2021/12/28 03:06:00;;;;;;;38.45;10.85;;;7.30;94.00;;;;;;5044963;28;20516;-70
2021/12/28 03:08:28;;;;;;;34.95;10.85;;;7.30;94.00;;;;;;5047959;28;20026;-70
2021/12/28 03:10:54;;;;;;;30.02;10.10;;;7.40;94.00;;;;;;5044411;28;20400;-70
2021/12/28 03:13:27;;;;;;;41.50;10.40;;;7.40;94.00;;;;;;5050647;28;20558;-70
2021/12/28 03:15:54;;;;;;;27.83;10.33;;;7.40;94.00;;;;;;5046686;28;20473;-70
2021/12/28 03:18:20;;;;;;;29.85;11.55;;;7.40;94.00;;;;;;5041281;28;20392;-70
2021/12/28 03:20:46;;;;;;;25.92;9.70;;;7.50;94.00;;;;;;5042013;28;20026;-70
2021/12/28 03:23:20;;;;;;;36.38;10.52;;;7.40;94.00;;;;;;5033386;28;20040;-70
2021/12/28 03:25:47;;;;;;;43.28;11.55;;;7.40;94.00;;;;;;5047565;28;20053;-70
2021/12/28 03:28:24;;;;;;;24.92;9.48;;;7.50;94.00;;;;;;5042471;28;20017;-70
2021/12/28 03:30:52;;;;;;;46.47;11.50;;;7.50;94.00;;;;;;5040031;28;20066;-70
2021/12/28 03:33:19;;;;;;;29.73;10.38;;;7.50;93.90;;;;;;5054305;28;20025;-70
2021/12/28 03:35:45;;;;;;;38.10;12.82;;;7.50;94.00;;;;;;5053817;28;20476;-70
2021/12/28 03:38:11;;;;;;;32.15;10.98;;;7.50;93.90;;;;;;5053525;28;20044;-70
2021/12/28 03:40:37;;;;;;;31.48;11.30;;;7.60;94.00;;;;;;5039280;28;20036;-70
2021/12/28 03:43:02;;;;;;;60.33;10.77;;;7.60;94.00;;;;;;5046510;28;20033;-70
2021/12/28 03:45:28;;;;;;;28.20;9.77;;;7.60;94.00;;;;;;5045324;28;20067;-70
2021/12/28 03:47:57;;;;;;;35.72;10.65;;;7.60;94.00;;;;;;5048737;28;20037;-70
2021/12/28 03:50:25;;;;;;;27.80;7.38;;;7.60;94.00;;;;;;5050841;28;20029;-70
2021/12/28 03:52:55;;;;;;;36.35;10.80;;;7.60;93.90;;;;;;5042830;28;20033;-70
2021/12/28 03:55:25;;;;;;;29.67;10.98;;;7.60;93.90;;;;;;5046533;28;20029;-70
2021/12/28 03:57:53;;;;;;;21.40;9.00;;;7.60;93.80;;;;;;5034829;28;20039;-70
2021/12/28 04:00:21;;;;;;;38.17;9.68;;;7.70;93.80;;;;;;5039791;28;20103;-70
2021/12/28 04:02:48;;;;;;;27.05;8.95;;;7.70;93.80;;;;;;5044805;28;20067;-70
2021/12/28 04:05:20;;;;;;;32.88;10.95;;;7.70;93.70;;;;;;5047221;28;20029;-70
2021/12/28 04:07:48;;;;;;;27.67;11.18;;;7.80;93.60;;;;;;5033837;28;20048;-70
2021/12/28 04:10:16;;;;;;;37.40;12.80;;;7.80;93.70;;;;;;5037430;28;20029;-70
2021/12/28 04:12:43;;;;;;;28.17;9.35;;;7.80;93.70;;;;;;5052540;28;20072;-70
2021/12/28 04:15:14;;;;;;;22.27;10.00;;;7.90;93.60;;;;;;5052938;28;20476;-70
2021/12/28 04:17:41;;;;;;;19.92;6.20;;;7.90;93.80;;;;;;5053453;28;20078;-70
2021/12/28 04:20:11;;;;;;;29.88;13.18;;;7.90;93.40;;;;;;5032956;28;20040;-70
2021/12/28 04:22:38;;;;;;;25.73;11.50;;;8.00;93.50;;;;;;5046901;28;20052;-70
2021/12/28 04:25:06;;;;;;;36.53;10.68;;;8.00;93.40;;;;;;5052946;28;20025;-70
2021/12/28 04:27:37;;;;;;;23.45;11.38;;;8.00;93.40;;;;;;5052444;28;20166;-70
2021/12/28 04:30:08;;;;;;;25.77;10.07;;;8.00;93.40;;;;;;5052945;28;20103;-71
2021/12/28 04:32:34;;;;;;;34.10;10.63;;;8.10;93.40;;;;;;5050222;28;20040;-70
2021/12/28 04:34:59;;;;;;;30.58;14.77;;;8.10;93.40;;;;;;5032334;28;20021;-70
2021/12/28 04:37:25;;;;;;;37.75;15.10;;;8.10;93.30;;;;;;5032911;28;20037;-70
2021/12/28 04:39:51;;;;;;;50.08;13.73;;;8.10;93.30;;;;;;5033006;28;20029;-70
2021/12/28 04:42:17;;;;;;;34.58;14.05;;;8.10;93.30;;;;;;5036248;28;20064;-70
2021/12/28 04:44:43;;;;;;;39.35;12.73;;;8.10;93.40;;;;;;5041850;28;20037;-70
2021/12/28 04:47:09;;;;;;;33.97;11.80;;;8.10;93.40;;;;;;5037433;28;20090;-70
2021/12/28 04:49:35;;;;;;;32.92;10.25;;;8.10;93.40;;;;;;5051574;28;20029;-72
2021/12/28 04:52:01;;;;;;;25.13;8.82;;;8.10;93.40;;;;;;5049141;28;20040;-71
2021/12/28 04:54:27;;;;;;;33.28;12.63;;;8.10;93.50;;;;;;5045857;28;20026;-70
2021/12/28 04:56:53;;;;;;;38.42;15.07;;;8.10;93.40;;;;;;5045576;28;20087;-70
2021/12/28 04:59:19;;;;;;;33.53;13.93;;;8.10;93.50;;;;;;5052618;28;20037;-70
2021/12/28 05:01:45;;;;;;;40.35;14.50;;;8.10;93.40;;;;;;5038241;28;20069;-70
2021/12/28 05:04:10;;;;;;;35.50;12.55;;;8.10;93.40;;;;;;5040497;28;20120;-70
2021/12/28 05:06:37;;;;;;;38.70;11.93;;;8.10;93.50;;;;;;5037406;28;20099;-70
2021/12/28 05:09:15;;;;;;;28.85;10.15;;;8.10;93.50;;;;;;5032024;28;20029;-70
2021/12/28 05:11:41;;;;;;;34.47;13.60;;;8.10;93.40;;;;;;5036192;28;20083;-70
2021/12/28 05:14:10;;;;;;;31.80;12.50;;;8.10;93.40;;;;;;5041872;28;20389;-70
2021/12/28 05:16:36;;;;;;;33.85;14.13;;;8.20;93.50;;;;;;5035959;28;20374;-70
2021/12/28 05:19:05;;;;;;;43.33;12.45;;;8.20;93.50;;;;;;5052388;28;20058;-70
2021/12/28 05:21:31;;;;;;;57.17;12.73;;;8.20;93.50;;;;;;5033554;28;20078;-70
2021/12/28 05:23:57;;;;;;;62.60;13.25;;;8.20;93.50;;;;;;5031708;28;20552;-70
2021/12/28 05:26:23;;;;;;;84.13;15.07;;;8.20;93.50;;;;;;5038164;28;20116;-70
2021/12/28 05:28:49;;;;;;;74.97;13.32;;;8.20;93.50;;;;;;5040243;28;20499;-70
2021/12/28 05:31:15;;;;;;;113.40;17.02;;;8.20;93.60;;;;;;5045481;28;20038;-70
2021/12/28 05:33:40;;;;;;;39.80;9.73;;;8.20;93.70;;;;;;5032221;28;20025;-70
2021/12/28 05:36:07;;;;;;;123.22;16.63;;;8.20;93.60;;;;;;5046113;28;20041;-70
2021/12/28 05:38:33;;;;;;;78.68;13.52;;;8.10;93.70;;;;;;5032036;28;20033;-70
2021/12/28 05:40:59;;;;;;;97.53;13.50;;;8.20;93.80;;;;;;5044718;28;20388;-70
2021/12/28 05:43:25;;;;;;;98.70;14.20;;;8.20;93.90;;;;;;5045307;28;20100;-70
2021/12/28 05:45:50;;;;;;;62.17;13.60;;;8.20;93.90;;;;;;5039249;28;20488;-69
2021/12/28 05:48:16;;;;;;;53.15;12.02;;;8.20;93.90;;;;;;5037097;28;20400;-70
2021/12/28 05:50:42;;;;;;;24.50;9.82;;;8.20;93.90;;;;;;5045941;28;20079;-70
2021/12/28 05:53:08;;;;;;;57.30;11.93;;;8.10;93.90;;;;;;5041180;28;20116;-70
2021/12/28 05:55:33;;;;;;;69.65;13.40;;;8.20;93.90;;;;;;5031888;28;20057;-70
2021/12/28 05:57:59;;;;;;;47.53;12.27;;;8.20;93.90;;;;;;5041285;28;20036;-70
2021/12/28 06:00:28;;;;;;;78.10;12.30;;;8.20;93.80;;;;;;5050952;28;20036;-70
2021/12/28 06:02:55;;;;;;;80.80;12.50;;;8.20;93.90;;;;;;5051952;28;20047;-70
2021/12/28 06:05:21;;;;;;;76.93;12.98;;;8.20;93.90;;;;;;5046539;28;20396;-70
2021/12/28 06:07:46;;;;;;;74.35;14.18;;;8.20;93.90;;;;;;5036607;28;20115;-70
2021/12/28 06:10:14;;;;;;;77.47;13.35;;;8.20;94.00;;;;;;5031513;28;20034;-70
2021/12/28 06:12:40;;;;;;;71.82;12.98;;;8.20;94.00;;;;;;5032372;28;20038;-71
2021/12/28 06:15:07;;;;;;;62.40;12.52;;;8.20;94.10;;;;;;5032099;28;20116;-70
2021/12/28 06:17:33;;;;;;;88.85;13.07;;;8.20;94.10;;;;;;5031587;28;20033;-71
2021/12/28 06:19:59;;;;;;;42.85;12.80;;;8.30;94.10;;;;;;5031078;28;20037;-70
2021/12/28 06:22:24;;;;;;;96.43;14.18;;;8.30;94.20;;;;;;5045054;28;20049;-70
2021/12/28 06:24:50;;;;;;;48.20;11.30;;;8.30;94.30;;;;;;5044765;28;20384;-70
2021/12/28 06:27:17;;;;;;;37.22;11.60;;;8.20;94.30;;;;;;5050725;28;20036;-70
2021/12/28 06:29:42;;;;;;;27.65;11.10;;;8.20;94.30;;;;;;5037590;28;20041;-72
2021/12/28 06:32:08;;;;;;;55.65;11.88;;;8.30;94.30;;;;;;5031883;28;20029;-69
2021/12/28 06:34:34;;;;;;;45.65;13.55;;;8.20;94.30;;;;;;5045732;28;20040;-70
2021/12/28 06:37:00;;;;;;;47.28;14.38;;;8.20;94.30;;;;;;5035337;28;20040;-70
2021/12/28 06:39:25;;;;;;;48.22;13.25;;;8.30;94.40;;;;;;5035136;28;20385;-71
2021/12/28 06:41:51;;;;;;;30.98;11.55;;;8.20;94.30;;;;;;5033881;28;20025;-71
2021/12/28 06:44:17;;;;;;;35.33;13.43;;;8.20;94.30;;;;;;5036928;28;20040;-70
2021/12/28 06:46:42;;;;;;;30.98;13.43;;;8.20;94.30;;;;;;5034691;28;20037;-70
2021/12/28 06:49:08;;;;;;;28.75;13.43;;;8.20;94.30;;;;;;5034340;28;20032;-70
2021/12/28 06:51:34;;;;;;;26.33;12.63;;;8.20;94.40;;;;;;5036964;28;20065;-70
2021/12/28 06:53:59;;;;;;;26.88;14.13;;;8.20;94.30;;;;;;5036748;28;20036;-70
2021/12/28 06:56:25;;;;;;;23.45;13.57;;;8.20;94.40;;;;;;5033695;28;20060;-70
2021/12/28 06:58:51;;;;;;;30.08;14.25;;;8.20;94.40;;;;;;5047781;28;20112;-70
2021/12/28 07:01:16;;;;;;;25.90;12.88;;;8.20;94.40;;;;;;5054341;28;20389;-70
2021/12/28 07:03:42;;;;;;;34.67;14.30;;;8.20;94.40;;;;;;5041500;28;20060;-70
2021/12/28 07:06:08;;;;;;;27.20;14.65;;;8.30;94.40;;;;;;5041386;28;20061;-70
2021/12/28 07:08:37;;;;;;;25.88;12.20;;;8.20;94.40;;;;;;5054055;28;20040;-70
2021/12/28 07:11:03;;;;;;;23.10;12.30;;;8.20;94.40;;;;;;5054606;28;20043;-70
2021/12/28 07:13:29;;;;;;;22.00;10.98;;;8.20;94.40;;;;;;5054176;28;20033;-69
2021/12/28 07:15:55;;;;;;;27.23;13.73;;;8.20;94.40;;;;;;5034118;28;20429;-71
2021/12/28 07:18:21;;;;;;;27.70;13.13;;;8.20;94.40;;;;;;5048365;28;20109;-70
2021/12/28 07:20:48;;;;;;;23.40;12.20;;;8.20;94.40;;;;;;5042056;28;20063;-70
2021/12/28 07:23:14;;;;;;;23.70;10.82;;;8.20;94.50;;;;;;5040107;28;20087;-69
2021/12/28 07:25:40;;;;;;;21.45;12.00;;;8.20;94.50;;;;;;5045181;28;20538;-70
2021/12/28 07:28:05;;;;;;;22.38;11.73;;;8.20;94.70;;;;;;5047187;28;20037;-70
2021/12/28 07:30:31;;;;;;;23.95;12.25;;;8.20;94.50;;;;;;5044748;28;20033;-70
2021/12/28 07:32:57;;;;;;;25.17;11.88;;;8.20;94.50;;;;;;5047192;28;20037;-73
2021/12/28 07:35:22;;;;;;;22.30;11.35;;;8.20;94.50;;;;;;5043339;28;20029;-70
2021/12/28 07:37:48;;;;;;;22.60;11.45;;;8.20;94.50;;;;;;5037589;28;20382;-70
2021/12/28 07:40:14;;;;;;;27.80;11.88;;;8.20;94.50;;;;;;5043560;28;20528;-70
2021/12/28 07:42:40;;;;;;;22.70;10.85;;;8.20;94.50;;;;;;5040570;28;20029;-70
2021/12/28 07:45:09;;;;;;;20.25;9.85;;;8.20;94.50;;;;;;5043561;28;20389;-70
2021/12/28 07:47:36;;;;;;;25.38;11.20;;;8.20;94.50;;;;;;5037792;28;20064;-70
2021/12/28 07:50:03;;;;;;;15.85;8.57;;;8.20;94.50;;;;;;5052446;28;20033;-70
2021/12/28 07:52:29;;;;;;;16.33;8.88;;;8.30;94.50;;;;;;5052930;28;20025;-70
2021/12/28 07:54:54;;;;;;;21.20;10.57;;;8.30;94.50;;;;;;5053646;28;20043;-71
2021/12/28 07:57:20;;;;;;;20.08;8.43;;;8.30;94.50;;;;;;5053238;28;20480;-68
2021/12/28 07:59:46;;;;;;;19.40;8.68;;;8.20;94.50;;;;;;5053082;28;20025;-68
2021/12/28 08:02:11;;;;;;;16.33;6.32;;;8.30;94.40;;;;;;5035381;28;20435;-69
2021/12/28 08:04:37;;;;;;;17.17;9.65;;;8.30;94.40;;;;;;5044600;28;20036;-69
2021/12/28 08:07:03;;;;;;;17.92;8.07;;;8.30;94.40;;;;;;5046992;28;20041;-71
2021/12/28 08:09:32;;;;;;;19.08;8.07;;;8.20;94.30;;;;;;5045820;28;20544;-70
2021/12/28 08:11:57;;;;;;;16.10;7.30;;;8.30;94.40;;;;;;5039210;28;20499;-69
2021/12/28 08:14:23;;;;;;;19.05;8.27;;;8.30;94.40;;;;;;5041122;28;20025;-69
2021/12/28 08:16:49;;;;;;;12.63;7.38;;;8.30;94.40;;;;;;5053219;28;20032;-69
2021/12/28 08:19:15;;;;;;;23.35;7.85;;;8.30;94.40;;;;;;5053263;28;20079;-70
2021/12/28 08:21:40;;;;;;;13.98;8.48;;;8.30;94.30;;;;;;5045336;28;20038;-68
2021/12/28 08:24:07;;;;;;;11.88;6.00;;;8.30;94.30;;;;;;5035180;28;20029;-69
2021/12/28 08:26:32;;;;;;;14.90;8.15;;;8.30;94.30;;;;;;5031754;28;20090;-69
2021/12/28 08:28:58;;;;;;;16.65;7.55;;;8.30;94.30;;;;;;5037761;28;20113;-68
2021/12/28 08:31:24;;;;;;;15.73;7.88;;;8.20;94.30;;;;;;5032431;28;20021;-69
2021/12/28 08:33:50;;;;;;;18.67;8.20;;;8.30;94.30;;;;;;5031120;28;20492;-69
2021/12/28 08:36:16;;;;;;;15.70;7.05;;;8.30;94.40;;;;;;5031387;28;20040;-69
2021/12/28 08:38:43;;;;;;;15.20;7.35;;;8.30;94.40;;;;;;5037276;28;20041;-69
2021/12/28 08:41:10;;;;;;;19.05;6.00;;;8.20;94.40;;;;;;5031464;28;20033;-82
2021/12/28 08:43:36;;;;;;;19.48;7.78;;;8.30;94.40;;;;;;5035173;28;20021;-69
2021/12/28 08:46:02;;;;;;;15.82;6.82;;;8.30;94.40;;;;;;5039862;28;20511;-69
2021/12/28 08:48:27;;;;;;;17.27;6.28;;;8.30;94.40;;;;;;5033811;28;20024;-68
2021/12/28 08:50:53;;;;;;;15.27;5.72;;;8.30;94.40;;;;;;5040618;28;20021;-69
2021/12/28 08:53:19;;;;;;;20.10;7.15;;;8.30;94.40;;;;;;5042293;28;20079;-69
2021/12/28 08:55:44;;;;;;;14.75;6.68;;;8.30;94.40;;;;;;5043802;28;20045;-68
2021/12/28 08:58:10;;;;;;;10.00;5.50;;;8.40;94.40;;;;;;5051758;28;20040;-69
2021/12/28 09:00:37;;;;;;;15.00;5.55;;;8.40;94.40;;;;;;5039151;28;20049;-68
2021/12/28 09:03:03;;;;;;;11.85;5.00;;;8.30;94.40;;;;;;5049601;28;20025;-69
2021/12/28 09:05:30;;;;;;;25.30;5.10;;;8.40;94.40;;;;;;5050547;28;20065;-69
2021/12/28 09:07:57;;;;;;;14.38;4.70;;;8.40;94.50;;;;;;5044174;28;20041;-68
2021/12/28 09:10:27;;;;;;;11.85;4.35;;;8.40;94.50;;;;;;5047809;28;20531;-69
2021/12/28 09:12:55;;;;;;;23.65;5.50;;;8.40;94.50;;;;;;5044420;28;20041;-67
2021/12/28 09:15:21;;;;;;;12.70;4.32;;;8.40;94.50;;;;;;5046941;28;20484;-66
2021/12/28 09:17:47;;;;;;;12.63;5.32;;;8.50;94.50;;;;;;5047948;28;20044;-69
2021/12/28 09:20:21;;;;;;;16.70;5.90;;;8.40;94.50;;;;;;5046598;28;20029;-72
2021/12/28 09:22:47;;;;;;;11.52;3.92;;;8.50;94.50;;;;;;5047450;28;20033;-71
2021/12/28 09:25:15;;;;;;;10.05;4.55;;;8.50;94.40;;;;;;5048623;28;20035;-69
2021/12/28 09:27:41;;;;;;;9.70;4.20;;;8.50;94.30;;;;;;5048116;28;20379;-68
2021/12/28 09:30:08;;;;;;;14.68;5.30;;;8.60;94.30;;;;;;5047824;28;20072;-67
2021/12/28 09:32:34;;;;;;;14.48;4.93;;;8.60;94.30;;;;;;5047320;28;20025;-69
2021/12/28 09:34:59;;;;;;;10.35;3.88;;;8.60;94.30;;;;;;5047894;28;20439;-70
2021/12/28 09:37:25;;;;;;;14.32;4.57;;;8.60;94.30;;;;;;5049137;28;20087;-69
2021/12/28 09:39:51;;;;;;;15.68;4.68;;;8.60;94.30;;;;;;5051148;28;20021;-69
2021/12/28 09:42:18;;;;;;;14.73;4.38;;;8.70;94.30;;;;;;5051205;28;20388;-65
2021/12/28 09:44:47;;;;;;;16.95;4.72;;;8.70;94.40;;;;;;5047433;28;20033;-66
2021/12/28 09:47:15;;;;;;;18.50;5.30;;;8.70;94.50;;;;;;5051596;28;20045;-67
2021/12/28 09:49:41;;;;;;;9.18;4.00;;;8.70;94.50;;;;;;5048540;28;20104;-67
2021/12/28 09:52:08;;;;;;;17.95;5.10;;;8.80;94.40;;;;;;5048617;28;20063;-67
2021/12/28 09:54:34;;;;;;;9.00;3.75;;;8.80;94.40;;;;;;5050202;28;20025;-67
2021/12/28 09:57:01;;;;;;;17.52;4.95;;;8.80;94.40;;;;;;5049011;28;20060;-67
2021/12/28 09:59:29;;;;;;;19.88;5.00;;;8.80;94.40;;;;;;5049292;28;20048;-67
2021/12/28 10:01:55;;;;;;;4.78;2.50;;;8.80;94.40;;;;;;5049882;28;20071;-67
2021/12/28 10:04:21;;;;;;;18.17;4.20;;;8.90;94.40;;;;;;5046161;28;20032;-67
2021/12/28 10:06:47;;;;;;;15.57;3.95;;;8.90;94.30;;;;;;5049828;28;20079;-67
2021/12/28 10:09:17;;;;;;;11.23;3.78;;;8.90;94.30;;;;;;5050647;28;20033;-67
2021/12/28 10:11:48;;;;;;;16.35;4.38;;;8.90;94.40;;;;;;5053096;28;20175;-67
2021/12/28 10:14:19;;;;;;;8.65;3.22;;;9.00;94.40;;;;;;5049191;28;20040;-67
2021/12/28 10:16:56;;;;;;;14.75;4.70;;;9.00;94.40;;;;;;5050531;28;20076;-67
2021/12/28 10:19:44;;;;;;;13.07;3.85;;;9.00;94.50;;;;;;5049112;28;20083;-67
2021/12/28 10:22:33;;;;;;;21.77;3.83;;;9.00;94.50;;;;;;5050632;28;20090;-66
2021/12/28 10:25:19;;;;;;;17.58;4.80;;;9.00;94.50;;;;;;5050616;28;20029;-66
2021/12/28 10:27:47;;;;;;;17.77;3.85;;;9.00;94.50;;;;;;5053536;28;20139;-66
2021/12/28 10:30:23;;;;;;;20.55;4.20;;;9.00;94.50;;;;;;5053314;28;20039;-67
2021/12/28 10:33:10;;;;;;;18.50;3.95;;;9.00;94.50;;;;;;5038239;28;20061;-66
2021/12/28 10:35:44;;;;;;;14.48;3.95;;;9.00;94.60;;;;;;5038757;28;20037;-67
2021/12/28 10:38:17;;;;;;;14.32;4.82;;;9.00;94.60;;;;;;5041290;28;20831;-67
2021/12/28 10:40:49;;;;;;;19.13;4.88;;;9.00;94.70;;;;;;5044021;28;20033;-66
2021/12/28 10:43:17;;;;;;;20.10;4.97;;;9.10;94.70;;;;;;5048977;28;20510;-74
2021/12/28 10:45:44;;;;;;;6.90;3.00;;;9.00;94.70;;;;;;5044240;28;20536;-66
2021/12/28 10:48:15;;;;;;;11.70;3.55;;;9.10;94.70;;;;;;5047305;28;20040;-66
2021/12/28 10:50:59;;;;;;;8.82;3.33;;;9.10;94.70;;;;;;5048186;28;20036;-66
2021/12/28 10:53:35;;;;;;;18.35;4.68;;;9.10;94.80;;;;;;5046338;28;20025;-67
2021/12/28 10:56:05;;;;;;;13.60;3.30;;;9.20;94.70;;;;;;5041642;28;20045;-66
2021/12/28 10:58:41;;;;;;;14.50;3.85;;;9.20;94.80;;;;;;5041470;28;20370;-66
2021/12/28 11:01:13;;;;;;;13.15;3.05;;;9.20;95.10;;;;;;5044962;28;20030;-66
2021/12/28 11:03:51;;;;;;;9.07;3.10;;;9.20;94.70;;;;;;5051796;28;20041;-67
2021/12/28 11:06:29;;;;;;;11.23;3.17;;;9.30;94.80;;;;;;5054752;28;20045;-66
2021/12/28 11:08:57;;;;;;;18.60;3.72;;;9.20;94.80;;;;;;5047250;28;20377;-66
2021/12/28 11:11:24;;;;;;;13.38;3.58;;;9.20;94.80;;;;;;5036099;28;20033;-66
2021/12/28 11:14:12;;;;;;;14.27;3.20;;;9.30;94.80;;;;;;5046368;28;20057;-67
2021/12/28 11:16:38;;;;;;;15.27;4.18;;;9.30;94.90;;;;;;5034658;28;20033;-66
2021/12/28 11:19:07;;;;;;;12.15;4.10;;;9.30;94.80;;;;;;5034430;28;20040;-66
2021/12/28 11:21:36;;;;;;;16.55;3.55;;;9.30;94.90;;;;;;5039329;28;20045;-66
2021/12/28 11:24:06;;;;;;;10.40;3.15;;;9.30;94.90;;;;;;5035673;28;20560;-66
2021/12/28 11:26:41;;;;;;;14.30;3.90;;;9.40;94.90;;;;;;5045007;28;20127;-66
2021/12/28 11:29:11;;;;;;;12.57;3.50;;;9.40;95.00;;;;;;5046250;28;20025;-67
2021/12/28 11:31:51;;;;;;;7.65;2.88;;;9.40;95.00;;;;;;5048223;28;20052;-66
2021/12/28 11:34:27;;;;;;;14.55;3.42;;;9.40;94.90;;;;;;5048552;28;20028;-67
2021/12/28 11:37:03;;;;;;;13.13;3.85;;;9.40;95.00;;;;;;5046658;28;20058;-66
2021/12/28 11:39:35;;;;;;;11.90;2.83;;;9.40;95.00;;;;;;5049877;28;20032;-67
2021/12/28 11:42:03;;;;;;;12.90;3.60;;;9.50;95.00;;;;;;5051457;28;20476;-67
2021/12/28 11:44:31;;;;;;;11.98;3.60;;;9.50;95.00;;;;;;5041970;28;20558;-67
2021/12/28 11:46:59;;;;;;;10.70;3.20;;;9.50;95.00;;;;;;5023678;28;20036;-66
2021/12/28 11:49:28;;;;;;;11.98;3.22;;;9.50;95.40;;;;;;5037013;28;20025;-67
2021/12/28 11:52:00;;;;;;;13.98;3.08;;;9.50;95.10;;;;;;5035258;28;20037;-67
2021/12/28 11:54:28;;;;;;;18.10;3.28;;;9.50;95.10;;;;;;5033612;28;20033;-66
2021/12/28 11:57:00;;;;;;;11.05;3.63;;;9.50;95.10;;;;;;5030609;28;20061;-66
2021/12/28 11:59:28;;;;;;;9.23;3.28;;;9.50;95.20;;;;;;5033302;28;21000;-66
2021/12/28 12:02:00;;;;;;;7.95;2.92;;;9.50;95.20;;;;;;5041129;28;20380;-67
2021/12/28 12:04:29;;;;;;;9.27;2.95;;;9.50;95.20;;;;;;5034763;28;20045;-66
2021/12/28 12:06:57;;;;;;;11.93;3.42;;;9.50;95.10;;;;;;5050090;28;20037;-67
2021/12/28 12:09:24;;;;;;;7.13;3.05;;;9.60;95.20;;;;;;5049581;28;20048;-66
2021/12/28 12:12:10;;;;;;;11.63;3.83;;;9.60;95.20;;;;;;5032154;28;20053;-66
2021/12/28 12:14:51;;;;;;;12.23;3.53;;;9.60;95.20;;;;;;5044278;28;20059;-66
2021/12/28 12:17:31;;;;;;;9.82;3.28;;;9.60;95.20;;;;;;5044269;28;20040;-67
2021/12/28 12:20:07;;;;;;;14.15;3.50;;;9.60;95.20;;;;;;5031725;28;20469;-66
2021/12/28 12:22:44;;;;;;;11.52;3.25;;;9.70;95.20;;;;;;5048999;28;20040;-66
2021/12/28 12:25:22;;;;;;;12.07;3.80;;;9.60;95.20;;;;;;5038028;28;20510;-66
2021/12/28 12:27:55;;;;;;;8.27;3.67;;;9.60;95.20;;;;;;5032597;28;20111;-66
2021/12/28 12:30:20;;;;;;;16.43;4.53;;;9.60;95.20;;;;;;5047299;28;20041;-66
2021/12/28 12:32:58;;;;;;;10.23;3.85;;;9.70;95.30;;;;;;5041033;28;20350;-65
2021/12/28 12:35:27;;;;;;;8.27;3.15;;;9.70;95.30;;;;;;5032515;28;20417;-66
2021/12/28 12:37:52;;;;;;;7.18;3.38;;;9.70;95.30;;;;;;5031574;28;20049;-66
2021/12/28 12:40:18;;;;;;;17.17;4.07;;;9.70;95.30;;;;;;5049871;28;20094;-66
2021/12/28 12:43:03;;;;;;;8.95;3.33;;;9.70;95.30;;;;;;5039174;28;20038;-66
2021/12/28 12:45:51;;;;;;;11.50;3.67;;;9.70;95.30;;;;;;5039850;28;20067;-66
2021/12/28 12:48:31;;;;;;;11.85;4.15;;;9.80;95.30;;;;;;5045049;28;20065;-66
2021/12/28 12:51:19;;;;;;;12.15;4.25;;;9.80;95.40;;;;;;5035780;28;20029;-66